Time;durP1;ratioP1;P1;durP2;ratioP2;P2;SDS_P1;SDS_P2;PMS_P1;PMS_P2;Temp;Humidity;BMP_temperature;BMP_pressure;BME280_temperature;BME280_humidity;BME280_pressure;Samples;Min_cycle;Max_cycle;Signal;HPM_P1;HPM_P2
2020/12/01 00:00:33;;;;;;;7.97;5.32;;;;;;;20.27;38.75;99838.63;5084938;28;20047;-80
2020/12/01 00:02:59;;;;;;;6.13;4.40;;;;;;;20.27;38.83;99836.00;5071313;28;20185;-79
2020/12/01 00:05:26;;;;;;;7.50;5.15;;;;;;;20.26;38.57;99827.25;5071252;28;20051;-79
2020/12/01 00:07:52;;;;;;;7.90;4.68;;;;;;;20.25;38.55;99833.41;5071183;28;20029;-81
2020/12/01 00:10:20;;;;;;;7.43;4.57;;;;;;;20.26;38.89;99829.88;5070713;28;20111;-79
2020/12/01 00:12:46;;;;;;;7.20;4.65;;;;;;;20.26;38.85;99819.38;5089634;28;20377;-79
2020/12/01 00:15:16;;;;;;;6.88;4.50;;;;;;;20.24;38.70;99818.53;5091120;28;20032;-79
2020/12/01 00:17:43;;;;;;;5.88;4.32;;;;;;;20.25;38.76;99809.75;5092502;28;20024;-79
2020/12/01 00:20:09;;;;;;;5.68;4.15;;;;;;;20.26;38.75;99822.00;5092512;28;20060;-79
2020/12/01 00:22:35;;;;;;;7.25;4.50;;;;;;;20.26;38.94;99807.97;5091156;28;20058;-78
2020/12/01 00:25:02;;;;;;;5.72;3.97;;;;;;;20.25;38.56;99807.13;5090899;28;20131;-79
2020/12/01 00:27:28;;;;;;;5.65;3.95;;;;;;;20.26;38.74;99816.72;5091069;28;20446;-79
2020/12/01 00:29:53;;;;;;;6.28;4.03;;;;;;;20.28;39.01;99816.69;5090430;28;20047;-81
2020/12/01 00:32:19;;;;;;;6.70;4.57;;;;;;;20.27;39.03;99807.06;5092514;28;20035;-79
2020/12/01 00:34:44;;;;;;;5.60;3.92;;;;;;;20.29;38.70;99818.41;5090670;28;20032;-86
2020/12/01 00:37:10;;;;;;;6.65;4.45;;;;;;;20.29;38.71;99815.78;5090843;28;20028;-79
2020/12/01 00:39:36;;;;;;;5.45;3.90;;;;;;;20.29;38.68;99808.75;5090959;28;20043;-80
2020/12/01 00:42:03;;;;;;;5.38;3.30;;;;;;;20.29;38.77;99814.03;5091308;28;20068;-79
2020/12/01 00:44:28;;;;;;;5.85;3.95;;;;;;;20.31;38.81;99809.59;5092056;28;20032;-77
2020/12/01 00:46:54;;;;;;;6.32;3.78;;;;;;;20.32;38.76;99797.28;5093646;28;20040;-85
2020/12/01 00:49:19;;;;;;;5.55;3.67;;;;;;;20.33;39.08;99799.00;5070893;28;20036;-80
2020/12/01 00:51:48;;;;;;;4.97;3.30;;;;;;;20.32;38.83;99797.28;5072797;28;20166;-85
2020/12/01 00:54:13;;;;;;;6.18;4.03;;;;;;;20.32;39.18;99786.75;5071502;28;20036;-77
2020/12/01 00:56:38;;;;;;;5.47;3.42;;;;;;;20.35;38.74;99784.88;5070868;28;20036;-77
2020/12/01 00:59:04;;;;;;;4.30;2.72;;;;;;;20.34;38.91;99783.16;5070413;28;20040;-80
2020/12/01 01:01:31;;;;;;;4.93;3.60;;;;;;;20.35;38.84;99784.03;5078669;28;20041;-78
2020/12/01 01:03:56;;;;;;;4.88;3.58;;;;;;;20.34;38.86;99772.63;5070800;28;20392;-79
2020/12/01 01:06:22;;;;;;;3.92;3.20;;;;;;;20.36;38.96;99772.59;5071397;28;20108;-83
2020/12/01 01:08:48;;;;;;;5.18;3.47;;;;;;;20.37;39.22;99776.97;5070915;28;20032;-80
2020/12/01 01:11:13;;;;;;;5.32;3.47;;;;;;;20.38;39.30;99773.44;5072406;28;20036;-82
2020/12/01 01:13:39;;;;;;;5.45;3.10;;;;;;;20.37;39.19;99779.59;5091316;28;20393;-78
2020/12/01 01:16:06;;;;;;;5.60;3.50;;;;;;;20.38;39.07;99782.19;5091018;28;20097;-78
2020/12/01 01:18:32;;;;;;;3.85;2.78;;;;;;;20.41;38.76;99783.00;5096012;28;20047;-82
2020/12/01 01:20:57;;;;;;;5.22;3.70;;;;;;;20.42;38.92;99775.03;5096439;28;20090;-79
2020/12/01 01:23:23;;;;;;;4.30;2.53;;;;;;;20.41;39.04;99768.06;5093701;28;20090;-77
2020/12/01 01:25:49;;;;;;;3.85;2.75;;;;;;;20.44;39.06;99775.03;5094053;28;20077;-77
2020/12/01 01:28:15;;;;;;;5.40;3.22;;;;;;;20.44;39.02;99775.03;5093820;28;20114;-80
2020/12/01 01:30:41;;;;;;;4.68;3.03;;;;;;;20.44;39.17;99775.03;5094768;28;20496;-80
2020/12/01 01:33:12;;;;;;;4.07;2.92;;;;;;;20.42;39.45;99768.94;5094416;28;20055;-82
2020/12/01 01:35:38;;;;;;;4.82;3.17;;;;;;;20.45;39.12;99774.13;5094717;28;20032;-78
2020/12/01 01:38:05;;;;;;;4.28;2.72;;;;;;;20.45;39.19;99772.31;5094463;28;20032;-80
2020/12/01 01:40:32;;;;;;;4.60;2.92;;;;;;;20.48;39.22;99774.00;5094406;28;20048;-80
2020/12/01 01:42:58;;;;;;;3.97;2.80;;;;;;;20.46;39.07;99776.69;5094201;28;20035;-76
2020/12/01 01:45:44;;;;;;;4.90;3.17;;;;;;;20.45;39.07;99767.06;5094368;28;20032;-80
2020/12/01 01:48:33;;;;;;;4.55;3.10;;;;;;;20.46;39.27;99760.06;5085430;28;20037;-82
2020/12/01 01:51:07;;;;;;;3.92;2.55;;;;;;;20.47;39.18;99769.66;5074538;28;20041;-77
2020/12/01 01:53:41;;;;;;;4.47;2.92;;;;;;;20.48;39.12;99769.63;5074370;28;20043;-80
2020/12/01 01:56:12;;;;;;;3.72;2.80;;;;;;;20.51;39.23;99769.53;5074424;28;20044;-80
2020/12/01 01:58:42;;;;;;;4.20;3.00;;;;;;;20.52;39.10;99773.88;5074416;28;20025;-76
2020/12/01 02:01:11;;;;;;;3.80;2.90;;;;;;;20.52;39.28;99767.75;5079498;28;20485;-76
2020/12/01 02:03:45;;;;;;;4.22;2.85;;;;;;;20.51;39.17;99763.38;5095551;28;20035;-83
2020/12/01 02:06:27;;;;;;;4.43;2.97;;;;;;;20.49;39.02;99755.53;5094538;28;20023;-80
2020/12/01 02:09:01;;;;;;;3.65;2.60;;;;;;;20.53;39.02;99762.47;5093749;28;20515;-81
2020/12/01 02:11:31;;;;;;;3.33;2.45;;;;;;;20.53;39.17;99761.56;5093790;28;20488;-80
2020/12/01 02:14:05;;;;;;;4.57;2.70;;;;;;;20.53;39.09;99756.31;5094287;28;20036;-80
2020/12/01 02:16:36;;;;;;;;;;;;;;;20.51;39.27;99759.00;5094310;28;20032;-78
2020/12/01 02:19:04;;;;;;;3.35;2.45;;;;;;;20.56;39.29;99744.81;5094716;28;19912;-82
2020/12/01 02:21:35;;;;;;;4.25;2.50;;;;;;;20.55;39.13;99749.22;5094664;28;20032;-81
2020/12/01 02:24:03;;;;;;;3.35;2.38;;;;;;;20.56;39.33;99750.09;5094391;28;20028;-79
2020/12/01 02:26:29;;;;;;;3.67;2.65;;;;;;;20.57;39.01;99747.41;5094178;28;20476;-76
2020/12/01 02:28:55;;;;;;;4.65;2.60;;;;;;;20.57;39.29;99739.53;5093389;28;20047;-78
2020/12/01 02:31:20;;;;;;;4.40;2.38;;;;;;;20.57;39.42;99741.28;5093935;28;20028;-83
2020/12/01 02:33:47;;;;;;;3.15;2.28;;;;;;;20.57;39.33;99734.25;5093239;28;20027;-81
2020/12/01 02:36:14;;;;;;;3.80;2.72;;;;;;;20.57;39.22;99733.38;5093274;28;20020;-79
2020/12/01 02:38:40;;;;;;;3.95;2.40;;;;;;;20.57;39.42;99741.28;5093347;28;20405;-79
2020/12/01 02:41:06;;;;;;;3.67;2.47;;;;;;;20.58;39.37;99738.63;5092669;28;20119;-82
2020/12/01 02:43:31;;;;;;;7.90;2.53;;;;;;;20.65;39.21;99742.78;5095201;28;20115;-79
2020/12/01 02:45:58;;;;;;;4.25;2.60;;;;;;;20.59;39.33;99747.38;5113861;28;20467;-79
2020/12/01 02:48:24;;;;;;;3.80;2.40;;;;;;;20.58;39.32;99741.25;5093079;28;20028;-80
2020/12/01 02:50:49;;;;;;;4.57;2.38;;;;;;;20.57;39.54;99751.81;5092940;28;20061;-80
2020/12/01 02:53:14;;;;;;;4.22;2.42;;;;;;;20.54;39.58;99743.13;5092739;28;20396;-78
2020/12/01 02:55:40;;;;;;;3.72;2.30;;;;;;;20.53;39.15;99746.66;5093050;28;20044;-81
2020/12/01 02:58:05;;;;;;;3.17;2.15;;;;;;;20.51;39.29;99756.38;5092469;28;20108;-79
2020/12/01 03:00:31;;;;;;;3.50;2.00;;;;;;;20.49;39.33;99754.66;5092683;28;20028;-80
2020/12/01 03:02:56;;;;;;;2.92;2.05;;;;;;;20.51;39.35;99752.84;5092917;28;20131;-80
2020/12/01 03:05:22;;;;;;;3.30;2.25;;;;;;;20.51;39.22;99744.97;5093687;28;20035;-80
2020/12/01 03:07:47;;;;;;;4.82;2.30;;;;;;;20.48;39.29;99742.41;5093844;28;20102;-80
2020/12/01 03:10:13;;;;;;;3.90;2.17;;;;;;;20.48;39.62;99740.66;5091973;28;20051;-79
2020/12/01 03:12:38;;;;;;;3.40;2.03;;;;;;;20.47;39.42;99740.72;5092497;28;20028;-81
2020/12/01 03:15:09;;;;;;;3.75;2.10;;;;;;;20.46;39.47;99739.84;5092098;28;20031;-80
2020/12/01 03:17:35;;;;;;;3.72;1.90;;;;;;;20.45;39.59;99734.63;5092501;28;20028;-79
2020/12/01 03:20:02;;;;;;;3.63;2.00;;;;;;;20.48;39.17;99742.41;5092767;28;20044;-80
2020/12/01 03:22:27;;;;;;;4.05;2.20;;;;;;;20.47;39.53;99745.97;5092206;28;20066;-80
2020/12/01 03:24:53;;;;;;;3.78;1.80;;;;;;;20.45;39.31;99751.28;5093511;28;20696;-80
2020/12/01 03:27:18;;;;;;;4.20;2.50;;;;;;;20.44;39.44;99757.44;5092034;28;20028;-81
2020/12/01 03:29:46;;;;;;;4.03;2.20;;;;;;;20.42;39.41;99754.00;5092940;28;20040;-82
2020/12/01 03:32:11;;;;;;;3.08;2.10;;;;;;;20.44;39.18;99756.59;5092178;28;20032;-79
2020/12/01 03:34:36;;;;;;;2.30;1.55;;;;;;;20.43;39.21;99747.81;5092023;28;20024;-80
2020/12/01 03:37:02;;;;;;;3.13;1.60;;;;;;;20.42;39.74;99750.50;5092571;28;20040;-78
2020/12/01 03:39:28;;;;;;;3.47;1.85;;;;;;;20.44;39.47;99748.69;5091229;28;20032;-79
2020/12/01 03:41:54;;;;;;;3.33;1.83;;;;;;;20.44;39.57;99752.19;5093216;28;20473;-81
2020/12/01 03:44:20;;;;;;;3.28;1.77;;;;;;;20.44;39.59;99753.97;5074873;28;20068;-78
2020/12/01 03:46:46;;;;;;;2.72;1.90;;;;;;;20.44;39.46;99752.19;5096502;28;20056;-80
2020/12/01 03:49:11;;;;;;;5.45;2.40;;;;;;;20.44;39.50;99748.69;5091806;28;20032;-81
2020/12/01 03:51:37;;;;;;;4.03;2.13;;;;;;;20.42;39.48;99743.47;5091540;28;20042;-80
2020/12/01 03:54:03;;;;;;;2.72;1.58;;;;;;;20.41;39.43;99746.16;5093268;28;20553;-80
2020/12/01 03:56:28;;;;;;;3.65;1.85;;;;;;;20.43;39.52;99746.97;5093035;28;20473;-80
2020/12/01 03:58:54;;;;;;;3.17;1.60;;;;;;;20.41;39.61;99741.75;5091586;28;20036;-79
2020/12/01 04:01:19;;;;;;;2.60;1.40;;;;;;;20.46;39.12;99746.88;5091606;28;20036;-82
2020/12/01 04:03:44;;;;;;;2.50;1.63;;;;;;;20.44;39.51;99748.69;5092860;28;20504;-80
2020/12/01 04:06:10;;;;;;;4.25;1.60;;;;;;;20.43;39.51;99746.97;5091432;28;20043;-81
2020/12/01 04:08:36;;;;;;;3.05;1.73;;;;;;;20.41;39.36;99744.38;5092962;28;20036;-79
2020/12/01 04:11:03;;;;;;;3.03;1.58;;;;;;;20.43;39.34;99747.81;5092210;28;20056;-81
2020/12/01 04:13:29;;;;;;;4.25;2.00;;;;;;;20.42;39.42;99745.25;5074966;28;20036;-79
2020/12/01 04:15:55;;;;;;;3.50;1.73;;;;;;;20.43;39.64;99746.97;5090749;28;20047;-80
2020/12/01 04:18:21;;;;;;;4.70;1.98;;;;;;;20.44;39.73;99751.34;5092916;28;20040;-81
2020/12/01 04:20:46;;;;;;;2.72;1.50;;;;;;;20.40;39.82;99747.91;5092350;28;20047;-78
2020/12/01 04:23:12;;;;;;;4.68;1.70;;;;;;;20.39;39.52;99747.06;5092505;28;20039;-79
2020/12/01 04:25:37;;;;;;;5.07;1.80;;;;;;;20.39;39.53;99739.16;5091138;28;20042;-78
2020/12/01 04:28:05;;;;;;;3.25;1.70;;;;;;;20.39;39.76;99741.78;5091139;28;20036;-79
2020/12/01 04:30:32;;;;;;;2.63;1.52;;;;;;;20.41;39.56;99744.38;5082183;28;20056;-77
2020/12/01 04:32:57;;;;;;;3.20;1.52;;;;;;;20.42;39.59;99746.09;5072311;28;20032;-80
2020/12/01 04:35:27;;;;;;;3.78;1.85;;;;;;;20.41;39.74;99738.25;5054979;28;20021;-79
2020/12/01 04:37:56;;;;;;;3.65;1.45;;;;;;;20.41;39.72;99741.75;5086662;28;20040;-79
2020/12/01 04:40:25;;;;;;;3.10;1.90;;;;;;;20.41;39.50;99748.78;5090523;28;20033;-79
2020/12/01 04:42:52;;;;;;;3.70;1.52;;;;;;;20.42;39.75;99754.00;5090783;28;20092;-79
2020/12/01 04:45:18;;;;;;;3.50;1.60;;;;;;;20.43;39.44;99744.34;5091989;28;20395;-79
2020/12/01 04:47:58;;;;;;;4.35;1.75;;;;;;;20.42;39.33;99750.50;5095258;28;20024;-79
2020/12/01 04:50:49;;;;;;;2.85;1.40;;;;;;;20.45;39.36;99753.91;5092834;28;20040;-81
2020/12/01 04:53:39;;;;;;;2.40;1.20;;;;;;;20.43;39.61;99754.88;5093187;28;20094;-82
2020/12/01 04:56:26;;;;;;;3.33;1.52;;;;;;;20.41;39.66;99756.69;5077331;28;20113;-83
2020/12/01 04:59:20;;;;;;;3.03;1.60;;;;;;;20.37;39.45;99748.88;5094812;28;20035;-79
2020/12/01 05:02:16;;;;;;;4.53;1.73;;;;;;;20.42;39.57;99746.09;5075902;28;20098;-81
2020/12/01 05:05:21;;;;;;;3.28;1.40;;;;;;;20.41;39.33;99747.00;5074384;28;20037;-80
2020/12/01 05:08:15;;;;;;;3.55;1.33;;;;;;;20.42;39.40;99743.47;5059513;28;20073;-82
2020/12/01 05:10:44;;;;;;;4.47;1.40;;;;;;;20.38;39.93;99745.34;5075131;28;20047;-81
2020/12/01 05:13:27;;;;;;;3.17;1.55;;;;;;;20.36;39.58;99741.03;5074144;28;20071;-80
2020/12/01 05:15:57;;;;;;;5.45;1.70;;;;;;;20.36;39.69;99747.13;5074279;28;20108;-82
2020/12/01 05:18:28;;;;;;;6.25;1.50;;;;;;;20.39;39.88;99743.59;5074501;28;20064;-79
2020/12/01 05:21:00;;;;;;;4.18;1.90;;;;;;;20.37;39.66;99740.97;5073949;28;20036;-80
2020/12/01 05:23:37;;;;;;;5.53;1.50;;;;;;;20.38;39.67;99747.13;5073846;28;20041;-82
2020/12/01 05:26:06;;;;;;;2.58;1.13;;;;;;;20.41;39.94;99748.78;5075791;28;20401;-83
2020/12/01 05:28:46;;;;;;;2.92;1.25;;;;;;;20.39;39.55;99738.31;5073855;28;20047;-80
2020/12/01 05:31:11;;;;;;;3.40;1.52;;;;;;;20.38;39.63;99737.44;5074406;28;20116;-80
2020/12/01 05:33:37;;;;;;;3.22;1.77;;;;;;;20.38;39.86;99747.97;5074011;28;20572;-80
2020/12/01 05:36:05;;;;;;;3.45;1.90;;;;;;;20.39;39.92;99744.44;5073924;28;20032;-81
2020/12/01 05:38:33;;;;;;;3.50;1.50;;;;;;;20.39;39.66;99752.31;5075207;28;20041;-80
2020/12/01 05:41:19;;;;;;;5.38;1.83;;;;;;;20.36;39.81;99748.94;5088600;28;20094;-81
2020/12/01 05:43:44;;;;;;;3.17;1.50;;;;;;;20.39;39.94;99749.69;5114588;28;20560;-81
2020/12/01 05:46:22;;;;;;;4.72;2.13;;;;;;;20.38;39.63;99747.97;5112795;28;20035;-81
2020/12/01 05:48:57;;;;;;;3.72;1.60;;;;;;;20.39;39.74;99749.69;5094959;28;20036;-81
2020/12/01 05:51:35;;;;;;;3.65;1.75;;;;;;;20.41;39.79;99749.63;5094057;28;20535;-79
2020/12/01 05:54:01;;;;;;;4.18;1.50;;;;;;;20.41;39.84;99741.75;5093901;28;20039;-79
2020/12/01 05:56:27;;;;;;;3.47;1.55;;;;;;;20.39;39.92;99739.16;5093919;28;20560;-79
2020/12/01 05:59:00;;;;;;;2.30;1.35;;;;;;;20.39;39.70;99739.16;5093705;28;20056;-79
2020/12/01 06:01:26;;;;;;;5.60;1.50;;;;;;;20.42;39.86;99739.97;5077008;28;20029;-83
2020/12/01 06:04:07;;;;;;;3.60;1.55;;;;;;;20.39;39.70;99747.06;5075006;28;20040;-81
2020/12/01 06:07:14;;;;;;;3.60;1.55;;;;;;;20.37;39.86;99740.97;5074979;28;20040;-78
2020/12/01 06:09:39;;;;;;;4.78;1.63;;;;;;;20.38;39.92;99739.22;5072797;28;20040;-80
2020/12/01 06:12:18;;;;;;;3.55;1.40;;;;;;;20.35;39.93;99737.53;5074815;28;20036;-79
2020/12/01 06:14:54;;;;;;;4.43;1.70;;;;;;;20.36;39.93;99744.50;5073217;28;20062;-84
2020/12/01 06:17:28;;;;;;;5.47;1.80;;;;;;;20.36;40.07;99733.13;5073447;28;20526;-82
2020/12/01 06:20:38;;;;;;;4.38;1.63;;;;;;;20.34;39.92;99737.56;5090403;28;20032;-80
2020/12/01 06:23:33;;;;;;;4.00;1.40;;;;;;;20.36;39.94;99749.78;5054624;28;20038;-77
2020/12/01 06:26:02;;;;;;;3.55;1.38;;;;;;;20.41;39.86;99751.41;5089019;28;20036;-79
2020/12/01 06:28:39;;;;;;;3.50;1.40;;;;;;;20.41;40.03;99749.63;5094060;28;20115;-77
2020/12/01 06:31:25;;;;;;;12.85;2.00;;;;;;;20.38;40.05;99753.22;5087926;28;20036;-75
2020/12/01 06:34:02;;;;;;;3.65;1.55;;;;;;;20.39;40.05;99743.59;5092153;28;20496;-79
2020/12/01 06:36:49;;;;;;;6.70;1.80;;;;;;;20.39;39.89;99754.09;5090638;28;20031;-79
2020/12/01 06:39:30;;;;;;;13.30;2.20;;;;;;;20.44;39.91;99748.69;5091739;28;20032;-81
2020/12/01 06:42:09;;;;;;;14.85;8.25;;;;;;;20.45;40.01;99743.38;5089460;28;20071;-82
2020/12/01 06:44:38;;;;;;;21.73;9.52;;;;;;;20.48;40.10;99745.03;5088390;28;20035;-83
2020/12/01 06:47:03;;;;;;;17.63;9.02;;;;;;;20.51;40.09;99742.34;5095875;28;20107;-78
2020/12/01 06:49:32;;;;;;;15.68;8.02;;;;;;;20.52;39.96;99741.41;5091016;28;20583;-79
2020/12/01 06:52:04;;;;;;;11.70;6.97;;;;;;;20.54;39.87;99744.88;5090534;28;20040;-79
2020/12/01 06:54:31;;;;;;;21.88;8.52;;;;;;;20.57;40.04;99744.78;5092450;28;20095;-80
2020/12/01 06:57:01;;;;;;;15.30;7.60;;;;;;;20.53;39.99;99735.25;5092456;28;20032;-79
2020/12/01 06:59:45;;;;;;;16.85;7.97;;;;;;;20.57;39.83;99739.53;5092256;28;20040;-80
2020/12/01 07:02:25;;;;;;;12.50;7.07;;;;;;;20.54;40.07;99739.59;5092479;28;20134;-78
2020/12/01 07:05:11;;;;;;;13.25;7.03;;;;;;;20.53;40.19;99741.41;5093952;28;20039;-79
2020/12/01 07:07:41;;;;;;;12.77;6.97;;;;;;;20.50;40.15;99753.75;5085612;28;20036;-80
2020/12/01 07:10:18;;;;;;;13.55;5.80;;;;;;;20.49;40.15;99750.28;5071273;28;20098;-80
2020/12/01 07:12:52;;;;;;;19.90;6.30;;;;;;;20.47;40.24;99748.63;5088698;28;20394;-75
2020/12/01 07:15:27;;;;;;;;;;;;;;;20.44;40.10;99752.19;5072777;28;20578;-75
2020/12/01 07:18:08;;;;;;;13.23;5.05;;;;;;;20.45;40.30;99753.06;5073226;28;20412;-76
2020/12/01 07:20:38;;;;;;;10.23;5.32;;;;;;;20.44;40.26;99757.44;5072568;28;20029;-75
2020/12/01 07:23:24;;;;;;;10.77;5.60;;;;;;;20.44;40.33;99756.59;5088116;28;20036;-75
2020/12/01 07:25:59;;;;;;;16.55;5.82;;;;;;;20.43;40.19;99749.59;5092103;28;20029;-78
2020/12/01 07:28:47;;;;;;;13.48;5.10;;;;;;;20.44;40.29;99756.59;5093186;28;20085;-80
2020/12/01 07:31:24;;;;;;;12.63;5.22;;;;;;;20.46;40.04;99757.41;5093123;28;20046;-75
2020/12/01 07:33:56;;;;;;;11.00;4.57;;;;;;;20.43;40.31;99760.97;5091872;28;20036;-81
2020/12/01 07:36:36;;;;;;;9.32;4.82;;;;;;;20.43;40.23;99762.75;5091880;28;20056;-80
2020/12/01 07:39:20;;;;;;;14.65;4.78;;;;;;;20.42;40.38;99768.94;5091561;28;20089;-79
2020/12/01 07:41:59;;;;;;;13.10;4.73;;;;;;;20.43;40.26;99762.75;5093261;28;20035;-78
2020/12/01 07:44:27;;;;;;;12.95;4.63;;;;;;;20.45;40.31;99774.13;5093030;28;20036;-78
2020/12/01 07:47:11;;;;;;;10.50;4.25;;;;;;;20.43;40.32;99766.25;5091697;28;20035;-78
2020/12/01 07:49:40;;;;;;;8.55;3.67;;;;;;;20.44;40.30;99765.34;5091210;28;20110;-78
2020/12/01 07:52:17;;;;;;;7.55;4.07;;;;;;;20.45;40.42;99760.94;5092172;28;20082;-79
2020/12/01 07:54:48;;;;;;;12.65;4.57;;;;;;;20.45;40.36;99767.06;5093084;28;20040;-78
2020/12/01 07:57:19;;;;;;;7.55;4.30;;;;;;;20.44;39.96;99773.22;5091687;28;20105;-79
2020/12/01 07:59:47;;;;;;;9.18;4.28;;;;;;;20.44;40.33;99777.66;5089258;28;20119;-79
2020/12/01 08:02:15;;;;;;;13.98;4.40;;;;;;;20.42;40.69;99782.09;5086034;28;20056;-79
2020/12/01 08:04:41;;;;;;;11.05;4.32;;;;;;;20.45;40.53;99774.97;5091042;28;20081;-77
2020/12/01 08:07:15;;;;;;;10.02;3.88;;;;;;;20.41;40.25;99768.06;5092727;28;20032;-81
2020/12/01 08:09:42;;;;;;;8.60;4.25;;;;;;;20.45;40.44;99784.63;5091378;28;20036;-77
2020/12/01 08:12:13;;;;;;;8.95;4.18;;;;;;;20.43;40.64;99786.44;5091500;28;20378;-77
2020/12/01 08:14:40;;;;;;;6.07;3.47;;;;;;;20.45;40.23;99789.91;5091567;28;20488;-78
2020/12/01 08:17:16;;;;;;;9.45;4.10;;;;;;;20.43;40.37;99782.03;5091104;28;20103;-81
2020/12/01 08:19:47;;;;;;;9.70;3.83;;;;;;;20.46;40.33;99787.22;5091343;28;20399;-77
2020/12/01 08:22:17;;;;;;;7.13;3.58;;;;;;;20.47;40.54;99785.47;5091365;28;20456;-78
2020/12/01 08:24:45;;;;;;;7.95;3.97;;;;;;;20.47;40.72;99785.47;5091103;28;20070;-78
2020/12/01 08:27:25;;;;;;;8.85;4.00;;;;;;;20.43;40.51;99779.41;5091472;28;20032;-79
2020/12/01 08:29:54;;;;;;;7.90;4.18;;;;;;;20.45;40.41;99782.84;5091185;28;20442;-77
2020/12/01 08:32:37;;;;;;;8.68;4.03;;;;;;;20.47;40.55;99785.47;5091044;28;20034;-78
2020/12/01 08:35:26;;;;;;;8.20;3.78;;;;;;;20.47;40.30;99783.69;5092709;28;20033;-79
2020/12/01 08:38:28;;;;;;;9.38;3.97;;;;;;;20.48;40.39;99787.16;5092582;28;20044;-81
2020/12/01 08:40:54;;;;;;;5.45;3.15;;;;;;;20.49;40.40;99787.13;5087482;28;20040;-79
2020/12/01 08:43:32;;;;;;;6.82;3.78;;;;;;;20.47;40.36;99782.84;5070990;28;20037;-80
2020/12/01 08:46:17;;;;;;;5.25;3.03;;;;;;;20.47;40.31;99786.31;5070775;28;20079;-78
2020/12/01 08:48:51;;;;;;;8.38;3.25;;;;;;;20.47;40.48;99794.22;5072180;28;20486;-79
2020/12/01 08:51:28;;;;;;;6.03;2.95;;;;;;;20.46;40.34;99789.84;5071825;28;20063;-79
2020/12/01 08:54:06;;;;;;;6.13;3.53;;;;;;;20.45;40.34;99790.75;5070889;28;20032;-79
2020/12/01 08:57:04;;;;;;;6.72;3.80;;;;;;;20.43;40.50;99792.56;5070778;28;20041;-78
2020/12/01 08:59:42;;;;;;;6.13;3.10;;;;;;;20.43;40.46;99789.94;5069923;28;20048;-77
2020/12/01 09:02:10;;;;;;;6.50;2.90;;;;;;;20.47;40.43;99791.56;5070836;28;20035;-78
2020/12/01 09:04:37;;;;;;;5.82;3.42;;;;;;;20.46;40.42;99803.00;5070716;28;20071;-79
2020/12/01 09:07:06;;;;;;;6.07;3.13;;;;;;;20.44;40.50;99796.91;5070612;28;20036;-77
2020/12/01 09:09:33;;;;;;;8.18;3.20;;;;;;;20.46;40.70;99796.91;5089625;28;20036;-79
2020/12/01 09:12:17;;;;;;;5.53;2.83;;;;;;;20.45;40.38;99800.44;5091450;28;20396;-78
2020/12/01 09:22:49;;;;;;;5.35;3.05;;;;;;;20.48;40.48;99810.84;5091938;28;20515;-81
2020/12/01 09:25:25;;;;;;;7.43;3.15;;;;;;;20.47;40.53;99811.78;5091982;28;20067;-78
2020/12/01 09:27:53;;;;;;;4.30;2.70;;;;;;;20.47;40.47;99817.03;5092185;28;20044;-77
2020/12/01 09:30:30;;;;;;;4.18;2.50;;;;;;;20.48;40.35;99821.38;5091615;28;20040;-78
2020/12/01 09:32:57;;;;;;;5.45;2.53;;;;;;;20.48;40.73;99822.25;5090523;28;20408;-81
2020/12/01 09:35:23;;;;;;;3.67;2.15;;;;;;;20.50;40.83;99822.19;5090496;28;20029;-81
2020/12/01 09:37:48;;;;;;;6.22;3.25;;;;;;;20.48;40.45;99822.25;5093320;28;20035;-80
2020/12/01 09:40:15;;;;;;;5.25;2.50;;;;;;;20.48;40.65;99834.53;5093707;28;20039;-79
2020/12/01 09:42:41;;;;;;;3.45;2.03;;;;;;;20.49;40.69;99831.00;5094170;28;20031;-79
2020/12/01 09:50:01;;;;;;;3.55;2.42;;;;;;;20.50;40.30;99838.00;5095185;28;20032;-78
2020/12/01 09:52:35;;;;;;;5.00;2.78;;;;;;;20.49;40.45;99836.25;5094001;28;20028;-79
2020/12/01 09:55:21;;;;;;;3.78;2.17;;;;;;;20.52;40.59;99842.31;5093808;28;20032;-80
2020/12/01 09:58:01;;;;;;;3.30;1.80;;;;;;;20.51;40.67;99837.97;5094057;28;20107;-78
2020/12/01 10:27:28;;;;;;;2.50;1.58;;;;;;;20.56;40.63;99860.63;5094375;28;20058;-79
2020/12/01 10:33:58;;;;;;;3.30;1.60;;;;;;;20.50;40.59;99866.94;5094534;28;20400;-80
2020/12/01 10:35:20;;;;;;;6.22;1.58;;;;;;;20.56;40.76;99869.41;5093963;28;20544;-78
2020/12/01 10:37:46;;;;;;;2.65;1.83;;;;;;;20.54;40.54;99869.47;5094361;28;20032;-80
2020/12/01 10:40:11;;;;;;;2.90;1.45;;;;;;;20.56;40.49;99869.41;5093855;28;20394;-81
2020/12/01 10:42:37;;;;;;;2.60;1.40;;;;;;;20.58;40.76;99864.09;5092801;28;20031;-78
2020/12/01 10:45:03;;;;;;;2.85;1.73;;;;;;;20.57;40.88;99873.78;5092751;28;20039;-78
2020/12/01 10:47:30;;;;;;;2.50;1.33;;;;;;;20.57;40.64;99879.03;5092701;28;20024;-78
2020/12/01 10:49:55;;;;;;;2.50;1.30;;;;;;;20.61;40.52;99880.69;5092890;28;20058;-81
2020/12/01 10:52:21;;;;;;;2.53;1.20;;;;;;;20.59;40.62;99874.59;5094038;28;20068;-82
2020/12/01 10:54:48;;;;;;;3.20;1.50;;;;;;;20.59;40.83;99871.09;5092761;28;20039;-77
2020/12/01 10:57:13;;;;;;;3.28;1.42;;;;;;;20.62;40.77;99871.88;5092525;28;20032;-78
2020/12/01 10:59:39;;;;;;;2.15;1.13;;;;;;;20.59;40.79;99877.22;5093968;28;20024;-77
2020/12/01 11:02:04;;;;;;;3.22;1.20;;;;;;;20.59;40.89;99873.72;5080804;28;20485;-78
2020/12/01 11:04:29;;;;;;;2.47;1.40;;;;;;;20.61;40.87;99885.06;5072882;28;20032;-79
2020/12/01 11:06:55;;;;;;;3.58;1.45;;;;;;;20.59;40.68;99887.75;5072218;28;20107;-78
2020/12/01 11:09:20;;;;;;;4.15;1.25;;;;;;;20.57;41.04;99884.31;5071842;28;20119;-80
2020/12/01 11:11:46;;;;;;;2.88;1.60;;;;;;;20.58;40.87;99885.16;5071887;28;20029;-76
2020/12/01 11:14:12;;;;;;;5.00;1.65;;;;;;;20.61;40.69;99895.59;5071796;28;20037;-79
2020/12/01 11:16:39;;;;;;;4.88;1.52;;;;;;;20.59;41.00;99893.03;5072317;28;20037;-79
2020/12/01 11:19:06;;;;;;;4.65;1.38;;;;;;;20.60;40.93;99880.72;5073192;28;20051;-80
2020/12/01 11:21:36;;;;;;;8.75;1.40;;;;;;;20.61;40.85;99900.88;5072949;28;20063;-80
2020/12/01 11:24:03;;;;;;;2.53;1.30;;;;;;;20.62;41.05;99898.22;5072961;28;20028;-79
2020/12/01 11:26:28;;;;;;;6.53;1.83;;;;;;;20.61;41.06;99900.88;5072813;28;20039;-79
2020/12/01 11:28:54;;;;;;;3.20;1.25;;;;;;;20.62;40.85;99903.47;5071658;28;20025;-78
2020/12/01 11:31:20;;;;;;;3.17;1.35;;;;;;;20.64;41.03;99914.81;5073141;28;20025;-79
2020/12/01 11:34:02;;;;;;;1.85;1.15;;;;;;;20.63;40.84;99912.22;5073181;28;20024;-78
2020/12/01 11:36:28;;;;;;;3.40;1.27;;;;;;;20.63;41.01;99910.44;5071664;28;20036;-81
2020/12/01 11:38:53;;;;;;;2.35;1.30;;;;;;;20.64;41.11;99916.59;5079754;28;20085;-80
2020/12/01 11:41:19;;;;;;;3.38;1.30;;;;;;;20.64;41.32;99909.53;5088533;28;20044;-78
2020/12/01 11:43:44;;;;;;;2.53;1.20;;;;;;;20.63;41.14;99925.38;5072855;28;20484;-79
2020/12/01 11:46:10;;;;;;;2.72;1.50;;;;;;;20.65;41.00;99913.91;5072870;28;20037;-79
2020/12/01 11:48:35;;;;;;;1.10;0.85;;;;;;;20.66;41.24;99920.91;5072758;28;20039;-78
2020/12/01 11:51:00;;;;;;;2.95;1.33;;;;;;;20.65;41.03;99916.53;5072622;28;20524;-79
2020/12/01 11:53:26;;;;;;;3.45;1.30;;;;;;;20.67;40.98;99913.88;5086293;28;20032;-76
2020/12/01 11:55:51;;;;;;;4.32;1.50;;;;;;;20.67;41.13;99925.25;5092765;28;20039;-77
2020/12/01 11:58:16;;;;;;;2.45;1.20;;;;;;;20.65;41.09;99916.53;5092739;28;20020;-77
2020/12/01 12:00:42;;;;;;;2.92;1.45;;;;;;;20.66;41.03;99920.91;5090007;28;20120;-78
2020/12/01 12:03:07;;;;;;;4.30;1.48;;;;;;;20.68;41.03;99923.50;5092402;28;20150;-76
2020/12/01 12:05:33;;;;;;;3.63;1.50;;;;;;;20.67;41.27;99933.16;5091430;28;20032;-78
2020/12/01 12:07:58;;;;;;;3.38;1.30;;;;;;;20.70;40.94;99926.97;5093025;28;20039;-79
2020/12/01 12:10:23;;;;;;;3.65;1.60;;;;;;;20.67;41.29;99927.88;5092411;28;20090;-77
2020/12/01 12:12:49;;;;;;;2.72;1.23;;;;;;;20.68;41.26;99927.00;5092531;28;20076;-77
2020/12/01 12:15:15;;;;;;;3.45;1.50;;;;;;;20.67;41.15;99927.88;5092250;28;20028;-77
2020/12/01 12:17:40;;;;;;;4.97;1.58;;;;;;;20.68;41.11;99932.25;5091246;28;20036;-80
2020/12/01 12:20:06;;;;;;;2.95;1.30;;;;;;;20.68;41.07;99929.63;5092568;28;20035;-78
2020/12/01 12:22:31;;;;;;;5.68;1.80;;;;;;;20.68;41.28;99927.00;5093019;28;20032;-77
2020/12/01 12:24:56;;;;;;;5.43;1.45;;;;;;;20.69;41.16;99923.44;5091020;28;20028;-77
2020/12/01 12:27:22;;;;;;;4.95;1.40;;;;;;;20.68;41.27;99929.63;5092210;28;20028;-78
2020/12/01 12:29:47;;;;;;;7.05;1.65;;;;;;;20.70;41.28;99932.22;5090834;28;20032;-78
2020/12/01 12:32:13;;;;;;;6.97;1.80;;;;;;;20.69;41.38;99928.72;5091332;28;20028;-80